sensor_id;sensor_type;location;lat;lon;timestamp;P1;durP1;ratioP1;P2;durP2;ratioP2
17595;SDS011;8916;47.086;15.920;2022-12-31T00:01:28;35.65;;;19.55;;
17595;SDS011;8916;47.086;15.920;2022-12-31T00:03:58;38.50;;;21.33;;
17595;SDS011;8916;47.086;15.920;2022-12-31T00:06:28;40.13;;;19.98;;
17595;SDS011;8916;47.086;15.920;2022-12-31T00:09:04;37.67;;;20.58;;
17595;SDS011;8916;47.086;15.920;2022-12-31T00:11:35;40.42;;;20.85;;
17595;SDS011;8916;47.086;15.920;2022-12-31T00:14:05;40.50;;;21.88;;
17595;SDS011;8916;47.086;15.920;2022-12-31T00:16:35;40.80;;;20.23;;
17595;SDS011;8916;47.086;15.920;2022-12-31T00:19:08;35.25;;;19.52;;
17595;SDS011;8916;47.086;15.920;2022-12-31T00:21:39;36.78;;;18.77;;
17595;SDS011;8916;47.086;15.920;2022-12-31T00:24:10;35.45;;;19.33;;
17595;SDS011;8916;47.086;15.920;2022-12-31T00:26:39;37.25;;;18.40;;
17595;SDS011;8916;47.086;15.920;2022-12-31T00:29:09;38.65;;;18.98;;
17595;SDS011;8916;47.086;15.920;2022-12-31T00:31:38;37.20;;;18.83;;
17595;SDS011;8916;47.086;15.920;2022-12-31T00:34:08;37.95;;;17.98;;
17595;SDS011;8916;47.086;15.920;2022-12-31T00:36:37;36.75;;;17.92;;
17595;SDS011;8916;47.086;15.920;2022-12-31T00:39:10;35.30;;;18.95;;
17595;SDS011;8916;47.086;15.920;2022-12-31T00:41:39;38.45;;;19.58;;
17595;SDS011;8916;47.086;15.920;2022-12-31T00:44:10;36.60;;;20.33;;
17595;SDS011;8916;47.086;15.920;2022-12-31T00:46:39;34.83;;;18.52;;
17595;SDS011;8916;47.086;15.920;2022-12-31T00:49:07;40.00;;;19.10;;
17595;SDS011;8916;47.086;15.920;2022-12-31T00:51:37;32.78;;;18.02;;
17595;SDS011;8916;47.086;15.920;2022-12-31T00:54:06;35.00;;;17.38;;
17595;SDS011;8916;47.086;15.920;2022-12-31T00:56:37;32.17;;;17.13;;
17595;SDS011;8916;47.086;15.920;2022-12-31T00:59:06;31.33;;;16.50;;
17595;SDS011;8916;47.086;15.920;2022-12-31T01:01:36;32.25;;;16.45;;
17595;SDS011;8916;47.086;15.920;2022-12-31T01:04:08;40.38;;;18.17;;
17595;SDS011;8916;47.086;15.920;2022-12-31T01:06:39;35.15;;;17.65;;
17595;SDS011;8916;47.086;15.920;2022-12-31T01:09:10;40.45;;;20.20;;
17595;SDS011;8916;47.086;15.920;2022-12-31T01:11:43;39.08;;;19.95;;
17595;SDS011;8916;47.086;15.920;2022-12-31T01:14:13;39.42;;;19.63;;
17595;SDS011;8916;47.086;15.920;2022-12-31T01:16:45;33.85;;;18.15;;
17595;SDS011;8916;47.086;15.920;2022-12-31T01:19:17;31.35;;;17.23;;
17595;SDS011;8916;47.086;15.920;2022-12-31T01:21:49;35.13;;;17.65;;
17595;SDS011;8916;47.086;15.920;2022-12-31T01:24:19;34.25;;;17.38;;
17595;SDS011;8916;47.086;15.920;2022-12-31T01:26:50;34.63;;;16.85;;
17595;SDS011;8916;47.086;15.920;2022-12-31T01:29:19;35.38;;;17.35;;
17595;SDS011;8916;47.086;15.920;2022-12-31T01:31:48;36.35;;;18.42;;
17595;SDS011;8916;47.086;15.920;2022-12-31T01:34:17;36.85;;;18.17;;
17595;SDS011;8916;47.086;15.920;2022-12-31T01:36:46;43.28;;;19.67;;
17595;SDS011;8916;47.086;15.920;2022-12-31T01:39:16;35.60;;;19.63;;
17595;SDS011;8916;47.086;15.920;2022-12-31T01:41:45;38.83;;;20.20;;
17595;SDS011;8916;47.086;15.920;2022-12-31T01:47:22;40.30;;;18.58;;
17595;SDS011;8916;47.086;15.920;2022-12-31T01:50:05;34.90;;;15.52;;
17595;SDS011;8916;47.086;15.920;2022-12-31T01:52:40;26.57;;;12.43;;
17595;SDS011;8916;47.086;15.920;2022-12-31T01:55:13;31.27;;;16.73;;
17595;SDS011;8916;47.086;15.920;2022-12-31T01:57:47;32.45;;;17.20;;
17595;SDS011;8916;47.086;15.920;2022-12-31T02:00:21;31.58;;;16.92;;
17595;SDS011;8916;47.086;15.920;2022-12-31T02:02:51;33.13;;;17.90;;
17595;SDS011;8916;47.086;15.920;2022-12-31T02:05:21;35.55;;;18.70;;
17595;SDS011;8916;47.086;15.920;2022-12-31T02:07:54;31.80;;;18.55;;
17595;SDS011;8916;47.086;15.920;2022-12-31T02:10:24;33.30;;;17.98;;
17595;SDS011;8916;47.086;15.920;2022-12-31T02:12:53;31.95;;;18.10;;
17595;SDS011;8916;47.086;15.920;2022-12-31T02:15:26;31.90;;;17.10;;
17595;SDS011;8916;47.086;15.920;2022-12-31T02:18:07;33.42;;;19.17;;
17595;SDS011;8916;47.086;15.920;2022-12-31T02:20:57;34.83;;;17.98;;
17595;SDS011;8916;47.086;15.920;2022-12-31T02:27:33;32.58;;;17.77;;
17595;SDS011;8916;47.086;15.920;2022-12-31T02:30:17;37.33;;;16.58;;
17595;SDS011;8916;47.086;15.920;2022-12-31T02:35:43;37.72;;;17.35;;
17595;SDS011;8916;47.086;15.920;2022-12-31T02:38:18;33.28;;;17.38;;
17595;SDS011;8916;47.086;15.920;2022-12-31T02:40:52;32.13;;;16.67;;
17595;SDS011;8916;47.086;15.920;2022-12-31T02:43:21;34.70;;;18.08;;
17595;SDS011;8916;47.086;15.920;2022-12-31T02:45:54;36.40;;;18.10;;
17595;SDS011;8916;47.086;15.920;2022-12-31T02:48:43;33.90;;;17.58;;
17595;SDS011;8916;47.086;15.920;2022-12-31T02:51:24;36.78;;;18.85;;
17595;SDS011;8916;47.086;15.920;2022-12-31T02:54:09;38.90;;;18.90;;
17595;SDS011;8916;47.086;15.920;2022-12-31T02:56:52;32.55;;;17.15;;
17595;SDS011;8916;47.086;15.920;2022-12-31T02:59:33;27.73;;;15.80;;
17595;SDS011;8916;47.086;15.920;2022-12-31T03:02:33;27.35;;;14.43;;
17595;SDS011;8916;47.086;15.920;2022-12-31T03:05:05;27.95;;;14.57;;
17595;SDS011;8916;47.086;15.920;2022-12-31T03:07:38;29.30;;;15.15;;
17595;SDS011;8916;47.086;15.920;2022-12-31T03:10:08;29.27;;;14.93;;
17595;SDS011;8916;47.086;15.920;2022-12-31T03:12:38;26.52;;;13.77;;
17595;SDS011;8916;47.086;15.920;2022-12-31T03:15:14;28.90;;;14.60;;
17595;SDS011;8916;47.086;15.920;2022-12-31T03:17:51;33.38;;;15.35;;
17595;SDS011;8916;47.086;15.920;2022-12-31T03:20:25;31.08;;;16.33;;
17595;SDS011;8916;47.086;15.920;2022-12-31T03:23:16;32.70;;;17.48;;
17595;SDS011;8916;47.086;15.920;2022-12-31T03:25:48;33.05;;;17.60;;
17595;SDS011;8916;47.086;15.920;2022-12-31T03:28:17;28.77;;;15.65;;
17595;SDS011;8916;47.086;15.920;2022-12-31T03:30:51;32.42;;;15.93;;
17595;SDS011;8916;47.086;15.920;2022-12-31T03:33:25;29.85;;;16.48;;
17595;SDS011;8916;47.086;15.920;2022-12-31T03:35:57;28.80;;;15.98;;
17595;SDS011;8916;47.086;15.920;2022-12-31T03:38:30;29.25;;;15.63;;
17595;SDS011;8916;47.086;15.920;2022-12-31T03:40:59;31.83;;;16.92;;
17595;SDS011;8916;47.086;15.920;2022-12-31T03:43:28;36.30;;;16.05;;
17595;SDS011;8916;47.086;15.920;2022-12-31T03:45:58;31.23;;;15.85;;
17595;SDS011;8916;47.086;15.920;2022-12-31T03:48:29;35.80;;;17.92;;
17595;SDS011;8916;47.086;15.920;2022-12-31T03:50:58;32.45;;;17.30;;
17595;SDS011;8916;47.086;15.920;2022-12-31T03:53:27;31.58;;;16.75;;
17595;SDS011;8916;47.086;15.920;2022-12-31T03:55:56;31.77;;;16.35;;
17595;SDS011;8916;47.086;15.920;2022-12-31T03:58:26;29.85;;;17.60;;
17595;SDS011;8916;47.086;15.920;2022-12-31T04:00:55;38.85;;;17.75;;
17595;SDS011;8916;47.086;15.920;2022-12-31T04:03:24;29.67;;;15.73;;
17595;SDS011;8916;47.086;15.920;2022-12-31T04:05:55;27.73;;;15.27;;
17595;SDS011;8916;47.086;15.920;2022-12-31T04:08:25;31.05;;;15.15;;
17595;SDS011;8916;47.086;15.920;2022-12-31T04:10:54;24.63;;;12.15;;
17595;SDS011;8916;47.086;15.920;2022-12-31T04:13:23;23.83;;;12.18;;
17595;SDS011;8916;47.086;15.920;2022-12-31T04:15:52;23.73;;;12.30;;
17595;SDS011;8916;47.086;15.920;2022-12-31T04:18:21;24.75;;;13.30;;
17595;SDS011;8916;47.086;15.920;2022-12-31T04:20:50;27.20;;;14.25;;
17595;SDS011;8916;47.086;15.920;2022-12-31T04:23:21;26.00;;;14.27;;
17595;SDS011;8916;47.086;15.920;2022-12-31T04:25:50;24.60;;;13.93;;
17595;SDS011;8916;47.086;15.920;2022-12-31T04:28:20;26.58;;;14.27;;
17595;SDS011;8916;47.086;15.920;2022-12-31T04:30:50;25.33;;;13.85;;
17595;SDS011;8916;47.086;15.920;2022-12-31T04:33:19;27.15;;;15.02;;
17595;SDS011;8916;47.086;15.920;2022-12-31T04:35:48;30.67;;;15.40;;
17595;SDS011;8916;47.086;15.920;2022-12-31T04:38:17;27.33;;;13.98;;
17595;SDS011;8916;47.086;15.920;2022-12-31T04:40:49;29.42;;;14.63;;
17595;SDS011;8916;47.086;15.920;2022-12-31T04:43:44;24.70;;;14.57;;
17595;SDS011;8916;47.086;15.920;2022-12-31T04:46:17;26.30;;;13.90;;
17595;SDS011;8916;47.086;15.920;2022-12-31T04:48:49;30.42;;;15.02;;
17595;SDS011;8916;47.086;15.920;2022-12-31T04:51:19;26.98;;;14.50;;
17595;SDS011;8916;47.086;15.920;2022-12-31T04:53:49;31.20;;;14.90;;
17595;SDS011;8916;47.086;15.920;2022-12-31T04:56:20;30.02;;;15.15;;
17595;SDS011;8916;47.086;15.920;2022-12-31T04:58:50;32.05;;;16.58;;
17595;SDS011;8916;47.086;15.920;2022-12-31T05:01:20;31.85;;;15.05;;
17595;SDS011;8916;47.086;15.920;2022-12-31T05:03:49;27.02;;;14.55;;
17595;SDS011;8916;47.086;15.920;2022-12-31T05:06:19;28.70;;;14.60;;
17595;SDS011;8916;47.086;15.920;2022-12-31T05:08:50;26.08;;;13.95;;
17595;SDS011;8916;47.086;15.920;2022-12-31T05:11:21;26.48;;;14.27;;
17595;SDS011;8916;47.086;15.920;2022-12-31T05:13:50;29.80;;;14.85;;
17595;SDS011;8916;47.086;15.920;2022-12-31T05:16:19;27.23;;;15.15;;
17595;SDS011;8916;47.086;15.920;2022-12-31T05:18:48;25.42;;;14.45;;
17595;SDS011;8916;47.086;15.920;2022-12-31T05:21:18;28.92;;;14.80;;
17595;SDS011;8916;47.086;15.920;2022-12-31T05:23:48;27.67;;;13.50;;
17595;SDS011;8916;47.086;15.920;2022-12-31T05:26:18;25.83;;;13.35;;
17595;SDS011;8916;47.086;15.920;2022-12-31T05:28:48;27.38;;;14.13;;
17595;SDS011;8916;47.086;15.920;2022-12-31T05:31:17;32.10;;;14.32;;
17595;SDS011;8916;47.086;15.920;2022-12-31T05:33:47;24.67;;;13.15;;
17595;SDS011;8916;47.086;15.920;2022-12-31T05:36:16;29.98;;;13.68;;
17595;SDS011;8916;47.086;15.920;2022-12-31T05:38:45;24.90;;;13.98;;
17595;SDS011;8916;47.086;15.920;2022-12-31T05:41:14;26.27;;;13.23;;
17595;SDS011;8916;47.086;15.920;2022-12-31T05:43:43;24.83;;;14.27;;
17595;SDS011;8916;47.086;15.920;2022-12-31T05:46:14;28.48;;;14.30;;
17595;SDS011;8916;47.086;15.920;2022-12-31T05:48:43;32.38;;;15.38;;
17595;SDS011;8916;47.086;15.920;2022-12-31T05:51:12;30.85;;;14.20;;
17595;SDS011;8916;47.086;15.920;2022-12-31T05:53:41;27.15;;;14.02;;
17595;SDS011;8916;47.086;15.920;2022-12-31T05:56:10;26.48;;;13.75;;
17595;SDS011;8916;47.086;15.920;2022-12-31T05:58:39;23.50;;;12.77;;
17595;SDS011;8916;47.086;15.920;2022-12-31T06:01:09;26.55;;;12.65;;
17595;SDS011;8916;47.086;15.920;2022-12-31T06:03:39;24.20;;;12.80;;
17595;SDS011;8916;47.086;15.920;2022-12-31T06:06:09;25.88;;;13.00;;
17595;SDS011;8916;47.086;15.920;2022-12-31T06:08:38;28.58;;;13.40;;
17595;SDS011;8916;47.086;15.920;2022-12-31T06:11:08;28.55;;;13.32;;
17595;SDS011;8916;47.086;15.920;2022-12-31T06:13:37;22.75;;;12.38;;
17595;SDS011;8916;47.086;15.920;2022-12-31T06:16:06;27.30;;;12.63;;
17595;SDS011;8916;47.086;15.920;2022-12-31T06:18:36;22.15;;;11.95;;
17595;SDS011;8916;47.086;15.920;2022-12-31T06:21:07;26.90;;;11.60;;
17595;SDS011;8916;47.086;15.920;2022-12-31T06:23:36;28.77;;;12.00;;
17595;SDS011;8916;47.086;15.920;2022-12-31T06:26:08;24.55;;;11.82;;
17595;SDS011;8916;47.086;15.920;2022-12-31T06:28:37;26.00;;;12.30;;
17595;SDS011;8916;47.086;15.920;2022-12-31T06:31:08;27.48;;;13.40;;
17595;SDS011;8916;47.086;15.920;2022-12-31T06:33:41;26.40;;;13.38;;
17595;SDS011;8916;47.086;15.920;2022-12-31T06:36:12;30.30;;;13.38;;
17595;SDS011;8916;47.086;15.920;2022-12-31T06:38:43;25.85;;;13.57;;
17595;SDS011;8916;47.086;15.920;2022-12-31T06:41:12;26.13;;;13.43;;
17595;SDS011;8916;47.086;15.920;2022-12-31T06:43:44;22.67;;;13.27;;
17595;SDS011;8916;47.086;15.920;2022-12-31T06:46:14;26.85;;;12.30;;
17595;SDS011;8916;47.086;15.920;2022-12-31T06:48:45;25.88;;;13.70;;
17595;SDS011;8916;47.086;15.920;2022-12-31T06:51:16;25.65;;;13.73;;
17595;SDS011;8916;47.086;15.920;2022-12-31T06:53:48;24.63;;;13.32;;
17595;SDS011;8916;47.086;15.920;2022-12-31T06:56:20;25.20;;;14.18;;
17595;SDS011;8916;47.086;15.920;2022-12-31T06:59:00;25.40;;;13.20;;
17595;SDS011;8916;47.086;15.920;2022-12-31T07:01:42;24.00;;;12.90;;
17595;SDS011;8916;47.086;15.920;2022-12-31T07:07:39;21.80;;;10.30;;
17595;SDS011;8916;47.086;15.920;2022-12-31T07:10:25;18.25;;;10.70;;
17595;SDS011;8916;47.086;15.920;2022-12-31T07:13:07;21.08;;;11.85;;
17595;SDS011;8916;47.086;15.920;2022-12-31T07:15:59;18.80;;;10.90;;
17595;SDS011;8916;47.086;15.920;2022-12-31T07:18:42;22.80;;;11.40;;
17595;SDS011;8916;47.086;15.920;2022-12-31T07:21:20;22.17;;;11.60;;
17595;SDS011;8916;47.086;15.920;2022-12-31T07:24:01;21.05;;;10.80;;
17595;SDS011;8916;47.086;15.920;2022-12-31T07:26:38;19.52;;;9.88;;
17595;SDS011;8916;47.086;15.920;2022-12-31T07:29:33;15.93;;;10.10;;
17595;SDS011;8916;47.086;15.920;2022-12-31T07:32:22;27.25;;;10.68;;
17595;SDS011;8916;47.086;15.920;2022-12-31T07:35:08;17.27;;;9.90;;
17595;SDS011;8916;47.086;15.920;2022-12-31T07:37:46;18.80;;;9.65;;
17595;SDS011;8916;47.086;15.920;2022-12-31T07:40:31;15.55;;;9.98;;
17595;SDS011;8916;47.086;15.920;2022-12-31T07:43:12;19.92;;;9.60;;
17595;SDS011;8916;47.086;15.920;2022-12-31T07:45:58;15.77;;;9.38;;
17595;SDS011;8916;47.086;15.920;2022-12-31T07:48:41;22.80;;;10.20;;
17595;SDS011;8916;47.086;15.920;2022-12-31T07:51:10;18.83;;;10.80;;
17595;SDS011;8916;47.086;15.920;2022-12-31T07:53:40;26.35;;;13.90;;
17595;SDS011;8916;47.086;15.920;2022-12-31T07:56:11;29.15;;;14.57;;
17595;SDS011;8916;47.086;15.920;2022-12-31T07:58:47;24.48;;;12.48;;
17595;SDS011;8916;47.086;15.920;2022-12-31T08:01:32;18.52;;;10.60;;
17595;SDS011;8916;47.086;15.920;2022-12-31T08:04:13;22.48;;;12.85;;
17595;SDS011;8916;47.086;15.920;2022-12-31T08:06:57;21.70;;;11.93;;
17595;SDS011;8916;47.086;15.920;2022-12-31T08:09:42;22.55;;;12.02;;
17595;SDS011;8916;47.086;15.920;2022-12-31T08:12:17;18.63;;;10.63;;
17595;SDS011;8916;47.086;15.920;2022-12-31T08:14:49;21.27;;;10.57;;
17595;SDS011;8916;47.086;15.920;2022-12-31T08:17:19;21.00;;;9.60;;
17595;SDS011;8916;47.086;15.920;2022-12-31T08:19:49;18.95;;;9.68;;
17595;SDS011;8916;47.086;15.920;2022-12-31T08:22:25;18.90;;;9.48;;
17595;SDS011;8916;47.086;15.920;2022-12-31T08:25:13;15.68;;;9.55;;
17595;SDS011;8916;47.086;15.920;2022-12-31T08:27:56;16.73;;;9.57;;
17595;SDS011;8916;47.086;15.920;2022-12-31T08:30:38;18.38;;;10.18;;
17595;SDS011;8916;47.086;15.920;2022-12-31T08:33:18;17.60;;;9.02;;
17595;SDS011;8916;47.086;15.920;2022-12-31T08:35:58;17.48;;;9.30;;
17595;SDS011;8916;47.086;15.920;2022-12-31T08:38:42;14.50;;;8.77;;
17595;SDS011;8916;47.086;15.920;2022-12-31T08:41:22;16.25;;;9.65;;
17595;SDS011;8916;47.086;15.920;2022-12-31T08:44:01;12.85;;;8.20;;
17595;SDS011;8916;47.086;15.920;2022-12-31T08:46:44;17.65;;;8.85;;
17595;SDS011;8916;47.086;15.920;2022-12-31T08:49:23;15.75;;;8.60;;
17595;SDS011;8916;47.086;15.920;2022-12-31T08:51:54;15.07;;;8.43;;
17595;SDS011;8916;47.086;15.920;2022-12-31T08:54:25;17.15;;;8.38;;
17595;SDS011;8916;47.086;15.920;2022-12-31T08:56:56;18.83;;;8.88;;
17595;SDS011;8916;47.086;15.920;2022-12-31T08:59:43;15.95;;;9.40;;
17595;SDS011;8916;47.086;15.920;2022-12-31T09:02:25;18.60;;;9.50;;
17595;SDS011;8916;47.086;15.920;2022-12-31T09:05:21;15.95;;;8.38;;
17595;SDS011;8916;47.086;15.920;2022-12-31T09:07:57;17.38;;;9.00;;
17595;SDS011;8916;47.086;15.920;2022-12-31T09:10:39;21.05;;;7.93;;
17595;SDS011;8916;47.086;15.920;2022-12-31T09:13:20;14.35;;;7.80;;
17595;SDS011;8916;47.086;15.920;2022-12-31T09:15:57;14.50;;;8.48;;
17595;SDS011;8916;47.086;15.920;2022-12-31T09:18:39;16.25;;;7.57;;
17595;SDS011;8916;47.086;15.920;2022-12-31T09:21:10;16.33;;;7.75;;
17595;SDS011;8916;47.086;15.920;2022-12-31T09:23:42;11.45;;;6.68;;
17595;SDS011;8916;47.086;15.920;2022-12-31T09:26:14;12.98;;;6.75;;
17595;SDS011;8916;47.086;15.920;2022-12-31T09:29:02;14.77;;;7.82;;
17595;SDS011;8916;47.086;15.920;2022-12-31T09:31:44;12.68;;;6.90;;
17595;SDS011;8916;47.086;15.920;2022-12-31T09:34:20;13.60;;;6.97;;
17595;SDS011;8916;47.086;15.920;2022-12-31T09:37:01;12.10;;;7.45;;
17595;SDS011;8916;47.086;15.920;2022-12-31T09:39:36;12.75;;;7.47;;
17595;SDS011;8916;47.086;15.920;2022-12-31T09:42:19;14.80;;;8.18;;
17595;SDS011;8916;47.086;15.920;2022-12-31T09:45:33;18.98;;;9.00;;
17595;SDS011;8916;47.086;15.920;2022-12-31T09:48:44;22.65;;;10.45;;
17595;SDS011;8916;47.086;15.920;2022-12-31T09:51:31;28.38;;;13.32;;
17595;SDS011;8916;47.086;15.920;2022-12-31T09:54:24;25.17;;;12.77;;
17595;SDS011;8916;47.086;15.920;2022-12-31T10:00:00;21.63;;;10.65;;
17595;SDS011;8916;47.086;15.920;2022-12-31T10:02:54;22.30;;;11.18;;
17595;SDS011;8916;47.086;15.920;2022-12-31T10:12:04;19.55;;;10.95;;
17595;SDS011;8916;47.086;15.920;2022-12-31T10:15:04;22.52;;;10.73;;
17595;SDS011;8916;47.086;15.920;2022-12-31T10:17:56;22.52;;;11.00;;
17595;SDS011;8916;47.086;15.920;2022-12-31T10:20:46;22.88;;;11.07;;
17595;SDS011;8916;47.086;15.920;2022-12-31T10:23:45;23.33;;;10.02;;
17595;SDS011;8916;47.086;15.920;2022-12-31T10:26:30;14.23;;;8.52;;
17595;SDS011;8916;47.086;15.920;2022-12-31T10:29:23;15.40;;;7.80;;
17595;SDS011;8916;47.086;15.920;2022-12-31T10:32:03;14.40;;;7.43;;
17595;SDS011;8916;47.086;15.920;2022-12-31T10:34:52;12.55;;;7.38;;
17595;SDS011;8916;47.086;15.920;2022-12-31T10:37:31;14.93;;;7.68;;
17595;SDS011;8916;47.086;15.920;2022-12-31T10:40:12;12.20;;;6.82;;
17595;SDS011;8916;47.086;15.920;2022-12-31T10:59:49;13.90;;;6.47;;
17595;SDS011;8916;47.086;15.920;2022-12-31T11:06:14;20.42;;;8.25;;
17595;SDS011;8916;47.086;15.920;2022-12-31T11:09:20;10.20;;;5.78;;
17595;SDS011;8916;47.086;15.920;2022-12-31T11:12:16;8.93;;;5.07;;
17595;SDS011;8916;47.086;15.920;2022-12-31T11:15:16;14.35;;;7.32;;
17595;SDS011;8916;47.086;15.920;2022-12-31T11:18:08;17.15;;;6.85;;
17595;SDS011;8916;47.086;15.920;2022-12-31T11:20:50;13.40;;;5.70;;
17595;SDS011;8916;47.086;15.920;2022-12-31T11:23:37;13.35;;;6.05;;
17595;SDS011;8916;47.086;15.920;2022-12-31T11:26:14;9.73;;;6.07;;
17595;SDS011;8916;47.086;15.920;2022-12-31T11:28:57;10.40;;;5.30;;
17595;SDS011;8916;47.086;15.920;2022-12-31T11:34:55;12.93;;;6.32;;
17595;SDS011;8916;47.086;15.920;2022-12-31T11:37:57;15.65;;;7.00;;
17595;SDS011;8916;47.086;15.920;2022-12-31T11:40:42;12.27;;;6.40;;
17595;SDS011;8916;47.086;15.920;2022-12-31T11:43:24;12.90;;;5.85;;
17595;SDS011;8916;47.086;15.920;2022-12-31T11:46:04;11.55;;;5.93;;
17595;SDS011;8916;47.086;15.920;2022-12-31T11:48:58;12.98;;;6.25;;
17595;SDS011;8916;47.086;15.920;2022-12-31T11:51:49;16.73;;;8.70;;
17595;SDS011;8916;47.086;15.920;2022-12-31T11:54:41;12.02;;;6.50;;
17595;SDS011;8916;47.086;15.920;2022-12-31T11:57:26;11.90;;;5.82;;
17595;SDS011;8916;47.086;15.920;2022-12-31T12:00:05;10.30;;;5.45;;
17595;SDS011;8916;47.086;15.920;2022-12-31T12:02:46;10.65;;;5.78;;
17595;SDS011;8916;47.086;15.920;2022-12-31T12:05:19;13.90;;;5.63;;
17595;SDS011;8916;47.086;15.920;2022-12-31T12:07:50;10.13;;;5.45;;
17595;SDS011;8916;47.086;15.920;2022-12-31T12:10:21;11.18;;;5.15;;
17595;SDS011;8916;47.086;15.920;2022-12-31T12:13:10;13.75;;;5.25;;
17595;SDS011;8916;47.086;15.920;2022-12-31T12:15:50;8.90;;;4.80;;
17595;SDS011;8916;47.086;15.920;2022-12-31T12:18:33;10.43;;;5.03;;
17595;SDS011;8916;47.086;15.920;2022-12-31T12:21:08;11.63;;;5.18;;
17595;SDS011;8916;47.086;15.920;2022-12-31T12:23:40;7.47;;;4.80;;
17595;SDS011;8916;47.086;15.920;2022-12-31T12:26:28;8.25;;;5.00;;
17595;SDS011;8916;47.086;15.920;2022-12-31T12:29:09;10.32;;;5.05;;
17595;SDS011;8916;47.086;15.920;2022-12-31T12:31:53;10.85;;;5.55;;
17595;SDS011;8916;47.086;15.920;2022-12-31T12:34:26;9.82;;;4.65;;
17595;SDS011;8916;47.086;15.920;2022-12-31T12:36:58;7.57;;;4.10;;
17595;SDS011;8916;47.086;15.920;2022-12-31T12:39:29;8.10;;;3.63;;
17595;SDS011;8916;47.086;15.920;2022-12-31T12:42:02;6.75;;;4.07;;
17595;SDS011;8916;47.086;15.920;2022-12-31T12:44:34;7.78;;;4.20;;
17595;SDS011;8916;47.086;15.920;2022-12-31T12:47:04;7.57;;;3.92;;
17595;SDS011;8916;47.086;15.920;2022-12-31T12:49:39;10.43;;;4.47;;
17595;SDS011;8916;47.086;15.920;2022-12-31T12:52:23;9.85;;;4.70;;
17595;SDS011;8916;47.086;15.920;2022-12-31T12:55:27;9.70;;;4.80;;
17595;SDS011;8916;47.086;15.920;2022-12-31T12:58:08;8.32;;;4.68;;
17595;SDS011;8916;47.086;15.920;2022-12-31T13:00:54;8.35;;;4.70;;
17595;SDS011;8916;47.086;15.920;2022-12-31T13:03:47;7.80;;;4.65;;
17595;SDS011;8916;47.086;15.920;2022-12-31T13:07:10;7.55;;;4.80;;
17595;SDS011;8916;47.086;15.920;2022-12-31T13:10:01;10.77;;;4.72;;
17595;SDS011;8916;47.086;15.920;2022-12-31T13:12:50;7.10;;;4.35;;
17595;SDS011;8916;47.086;15.920;2022-12-31T13:15:52;7.43;;;4.30;;
17595;SDS011;8916;47.086;15.920;2022-12-31T13:18:32;13.35;;;5.10;;
17595;SDS011;8916;47.086;15.920;2022-12-31T13:21:19;19.20;;;5.38;;
17595;SDS011;8916;47.086;15.920;2022-12-31T13:24:02;16.05;;;5.00;;
17595;SDS011;8916;47.086;15.920;2022-12-31T13:26:41;13.15;;;5.28;;
17595;SDS011;8916;47.086;15.920;2022-12-31T13:29:16;11.95;;;4.75;;
17595;SDS011;8916;47.086;15.920;2022-12-31T13:31:50;15.82;;;7.25;;
17595;SDS011;8916;47.086;15.920;2022-12-31T13:34:22;16.17;;;6.00;;
17595;SDS011;8916;47.086;15.920;2022-12-31T13:36:59;12.75;;;5.25;;
17595;SDS011;8916;47.086;15.920;2022-12-31T13:39:36;8.55;;;4.40;;
17595;SDS011;8916;47.086;15.920;2022-12-31T13:42:10;7.50;;;3.60;;
17595;SDS011;8916;47.086;15.920;2022-12-31T13:44:48;14.38;;;4.07;;
17595;SDS011;8916;47.086;15.920;2022-12-31T13:47:25;7.40;;;4.30;;
17595;SDS011;8916;47.086;15.920;2022-12-31T13:50:06;7.75;;;3.92;;
17595;SDS011;8916;47.086;15.920;2022-12-31T13:52:48;9.10;;;3.80;;
17595;SDS011;8916;47.086;15.920;2022-12-31T13:55:27;5.47;;;3.03;;
17595;SDS011;8916;47.086;15.920;2022-12-31T13:58:03;6.35;;;3.20;;
17595;SDS011;8916;47.086;15.920;2022-12-31T14:00:42;6.97;;;3.00;;
17595;SDS011;8916;47.086;15.920;2022-12-31T14:03:18;7.55;;;3.45;;
17595;SDS011;8916;47.086;15.920;2022-12-31T14:06:04;7.57;;;3.42;;
17595;SDS011;8916;47.086;15.920;2022-12-31T14:08:39;7.82;;;3.35;;
17595;SDS011;8916;47.086;15.920;2022-12-31T14:11:12;5.63;;;3.03;;
17595;SDS011;8916;47.086;15.920;2022-12-31T14:13:56;5.88;;;3.15;;
17595;SDS011;8916;47.086;15.920;2022-12-31T14:16:39;7.00;;;3.30;;
17595;SDS011;8916;47.086;15.920;2022-12-31T14:19:19;5.25;;;3.35;;
17595;SDS011;8916;47.086;15.920;2022-12-31T14:22:12;5.75;;;3.47;;
17595;SDS011;8916;47.086;15.920;2022-12-31T14:24:48;5.70;;;3.75;;
17595;SDS011;8916;47.086;15.920;2022-12-31T14:27:22;5.05;;;3.65;;
17595;SDS011;8916;47.086;15.920;2022-12-31T14:29:57;5.43;;;3.20;;
17595;SDS011;8916;47.086;15.920;2022-12-31T14:35:31;6.47;;;4.60;;
17595;SDS011;8916;47.086;15.920;2022-12-31T14:38:17;8.50;;;5.70;;
17595;SDS011;8916;47.086;15.920;2022-12-31T14:41:01;13.10;;;4.82;;
17595;SDS011;8916;47.086;15.920;2022-12-31T14:43:44;10.80;;;4.25;;
17595;SDS011;8916;47.086;15.920;2022-12-31T14:46:27;12.57;;;3.80;;
17595;SDS011;8916;47.086;15.920;2022-12-31T14:49:11;11.43;;;4.07;;
17595;SDS011;8916;47.086;15.920;2022-12-31T14:52:06;10.57;;;3.60;;
17595;SDS011;8916;47.086;15.920;2022-12-31T14:54:56;10.13;;;4.13;;
17595;SDS011;8916;47.086;15.920;2022-12-31T14:57:34;5.78;;;3.83;;
17595;SDS011;8916;47.086;15.920;2022-12-31T15:00:29;8.48;;;3.92;;
17595;SDS011;8916;47.086;15.920;2022-12-31T15:03:01;8.27;;;3.92;;
17595;SDS011;8916;47.086;15.920;2022-12-31T15:05:34;8.23;;;4.07;;
17595;SDS011;8916;47.086;15.920;2022-12-31T15:08:12;7.57;;;4.47;;
17595;SDS011;8916;47.086;15.920;2022-12-31T15:11:06;5.65;;;3.88;;
17595;SDS011;8916;47.086;15.920;2022-12-31T15:14:12;5.30;;;3.50;;
17595;SDS011;8916;47.086;15.920;2022-12-31T15:17:20;7.43;;;4.25;;
17595;SDS011;8916;47.086;15.920;2022-12-31T15:23:11;12.10;;;5.72;;
17595;SDS011;8916;47.086;15.920;2022-12-31T15:25:47;11.35;;;4.88;;
17595;SDS011;8916;47.086;15.920;2022-12-31T15:28:28;8.27;;;4.40;;
17595;SDS011;8916;47.086;15.920;2022-12-31T15:31:03;6.82;;;3.90;;
17595;SDS011;8916;47.086;15.920;2022-12-31T15:33:53;11.85;;;4.93;;
17595;SDS011;8916;47.086;15.920;2022-12-31T15:36:27;8.38;;;4.95;;
17595;SDS011;8916;47.086;15.920;2022-12-31T15:39:04;8.65;;;5.18;;
17595;SDS011;8916;47.086;15.920;2022-12-31T15:42:20;12.68;;;5.15;;
17595;SDS011;8916;47.086;15.920;2022-12-31T15:45:06;10.98;;;5.63;;
17595;SDS011;8916;47.086;15.920;2022-12-31T15:47:45;15.38;;;6.38;;
17595;SDS011;8916;47.086;15.920;2022-12-31T15:50:18;8.30;;;4.25;;
17595;SDS011;8916;47.086;15.920;2022-12-31T15:52:51;9.13;;;3.88;;
17595;SDS011;8916;47.086;15.920;2022-12-31T15:55:25;8.00;;;4.38;;
17595;SDS011;8916;47.086;15.920;2022-12-31T15:57:58;8.98;;;4.43;;
17595;SDS011;8916;47.086;15.920;2022-12-31T16:00:35;7.25;;;3.80;;
17595;SDS011;8916;47.086;15.920;2022-12-31T16:03:23;12.43;;;6.85;;
17595;SDS011;8916;47.086;15.920;2022-12-31T16:05:57;13.75;;;8.13;;
17595;SDS011;8916;47.086;15.920;2022-12-31T16:08:30;16.65;;;10.10;;
17595;SDS011;8916;47.086;15.920;2022-12-31T16:11:02;26.40;;;12.82;;
17595;SDS011;8916;47.086;15.920;2022-12-31T16:13:33;17.45;;;9.00;;
17595;SDS011;8916;47.086;15.920;2022-12-31T16:16:07;19.17;;;8.07;;
17595;SDS011;8916;47.086;15.920;2022-12-31T16:18:48;18.92;;;7.30;;
17595;SDS011;8916;47.086;15.920;2022-12-31T16:21:26;28.35;;;13.73;;